createdAt,value
2022-10-11T00:05:29.364Z,2.55
2022-10-11T00:11:01.229Z,2.55
2022-10-11T00:16:32.985Z,2.60
2022-10-11T00:27:36.454Z,2.70
2022-10-11T00:33:08.624Z,2.85
2022-10-11T00:38:39.951Z,2.90
2022-10-11T00:44:11.376Z,3.10
2022-10-11T00:49:42.742Z,3.30
2022-10-11T00:55:14.329Z,3.30
2022-10-11T01:00:45.940Z,3.30
2022-10-11T01:06:17.743Z,3.30
2022-10-11T01:11:49.454Z,3.55
2022-10-11T01:22:55.660Z,3.80
2022-10-11T01:28:27.476Z,3.95
2022-10-11T01:39:30.981Z,4.05
2022-10-11T01:45:03.054Z,4.25
2022-10-11T02:01:40.855Z,4.75
2022-10-11T02:07:12.849Z,4.85
2022-10-11T02:12:44.506Z,5.00
2022-10-11T02:18:16.435Z,5.10
2022-10-11T02:29:19.817Z,5.35
2022-10-11T02:34:51.623Z,5.45
2022-10-11T02:40:23.528Z,5.65
2022-10-11T02:51:27.273Z,5.90
2022-10-11T02:56:58.721Z,6.00
2022-10-11T03:02:30.712Z,6.10
2022-10-11T03:08:05.021Z,6.20
2022-10-11T03:13:37.062Z,6.25
2022-10-11T03:19:08.668Z,6.30
2022-10-11T03:24:40.597Z,6.40
2022-10-11T03:30:16.118Z,6.40
2022-10-11T03:35:44.183Z,6.45
2022-10-11T03:41:15.998Z,6.50
2022-10-11T03:46:47.640Z,6.60
2022-10-11T03:52:19.531Z,6.70
2022-10-11T03:57:51.339Z,6.75
2022-10-11T04:03:23.219Z,6.90
2022-10-11T04:08:55.144Z,7.00
2022-10-11T04:19:59.073Z,7.10
2022-10-11T04:25:30.831Z,7.20
2022-10-11T04:31:02.376Z,7.40
2022-10-11T04:42:06.756Z,7.60
2022-10-11T05:04:14.491Z,8.00
2022-10-11T05:09:46.756Z,8.15
2022-10-11T05:15:18.852Z,8.20
2022-10-11T05:20:50.515Z,8.30
2022-10-11T05:26:22.342Z,8.45
2022-10-11T05:31:54.018Z,8.55
2022-10-11T05:37:25.846Z,8.55
2022-10-11T05:42:57.683Z,8.55
2022-10-11T05:48:29.548Z,8.70
2022-10-11T05:54:01.379Z,8.75
2022-10-11T05:59:33.805Z,8.85
2022-10-11T06:10:39.591Z,9.15
2022-10-11T06:16:11.242Z,9.30
2022-10-11T06:27:14.506Z,9.50
2022-10-11T06:38:20.098Z,9.90
2022-10-11T06:43:52.466Z,9.95
2022-10-11T06:49:24.500Z,10.05
2022-10-11T06:54:56.481Z,10.30
2022-10-11T07:00:28.326Z,10.35
2022-10-11T07:06:02.751Z,10.45
2022-10-11T07:17:05.667Z,10.55
2022-10-11T07:22:37.460Z,10.70
2022-10-11T07:28:09.252Z,10.75
2022-10-11T07:33:41.024Z,10.85
2022-10-11T07:39:14.786Z,10.95
2022-10-11T07:44:46.675Z,11.10
2022-10-11T07:50:18.916Z,11.15
2022-10-11T07:55:50.739Z,11.30
2022-10-11T08:01:22.352Z,11.35
2022-10-11T08:17:57.761Z,11.70
2022-10-11T08:23:31.024Z,11.80
2022-10-11T08:29:02.881Z,11.95
2022-10-11T08:34:34.675Z,12.00
2022-10-11T08:45:36.034Z,12.30
2022-10-11T08:51:07.694Z,12.45
2022-10-11T08:56:39.569Z,12.55
2022-10-11T09:02:11.457Z,12.70
2022-10-11T09:07:43.250Z,12.90
2022-10-11T09:13:14.927Z,13.05
2022-10-11T09:24:16.229Z,13.35
2022-10-11T09:35:17.517Z,13.50
2022-10-11T09:40:49.230Z,13.55
2022-10-11T09:51:50.829Z,13.95
2022-10-11T09:57:22.684Z,14.05
2022-10-11T10:02:54.928Z,14.10
2022-10-11T10:08:27.028Z,14.20
2022-10-11T10:24:58.124Z,14.50
2022-10-11T10:30:34.516Z,14.55
2022-10-11T10:36:02.005Z,14.65
2022-10-11T10:41:33.642Z,15.00
2022-10-11T10:47:05.542Z,15.00
2022-10-11T10:52:37.348Z,15.00
2022-10-11T10:58:08.938Z,15.10
2022-10-11T11:03:40.791Z,15.15
2022-10-11T11:09:12.669Z,15.20
2022-10-11T11:16:54.544Z,0.00
2022-10-11T11:22:28.054Z,0.00
2022-10-11T11:27:56.728Z,1.66
2022-10-11T11:33:28.254Z,1.24
2022-10-11T11:39:00.166Z,1.78
2022-10-11T11:44:31.782Z,1.97
2022-10-11T11:50:03.565Z,1.97
2022-10-11T11:55:35.386Z,1.84
2022-10-11T12:06:47.705Z,2.26
2022-10-11T12:12:08.559Z,2.14
2022-10-11T12:17:40.121Z,2.21
2022-10-11T12:23:13.183Z,2.04
2022-10-11T12:28:43.703Z,1.89
2022-10-11T12:34:15.595Z,2.09
2022-10-11T12:39:47.489Z,2.27
2022-10-11T12:45:18.844Z,2.19
2022-10-11T12:50:50.293Z,2.18
2022-10-11T12:56:21.918Z,2.12
2022-10-11T13:01:53.753Z,2.15
2022-10-11T13:07:25.499Z,2.20
2022-10-11T13:12:57.300Z,2.25
2022-10-11T13:18:28.917Z,2.55
2022-10-11T13:24:00.829Z,2.70
2022-10-11T13:29:32.709Z,2.70
2022-10-11T13:35:04.509Z,2.85
2022-10-11T13:40:36.273Z,2.95
2022-10-11T13:46:08.856Z,3.05
2022-10-11T13:51:40.536Z,3.20
2022-10-11T13:57:12.418Z,3.50
2022-10-11T14:02:44.174Z,3.55
2022-10-11T14:08:16.503Z,3.65
2022-10-11T14:13:48.373Z,3.90
2022-10-11T14:19:20.197Z,4.00
2022-10-11T14:24:53.735Z,4.10
2022-10-11T14:30:27.120Z,4.25
2022-10-11T14:35:57.502Z,4.30
2022-10-11T14:41:29.294Z,4.40
2022-10-11T14:52:34.855Z,4.55
2022-10-11T15:03:38.615Z,4.75
2022-10-11T15:14:40.689Z,4.90
2022-10-11T15:25:44.234Z,5.15
2022-10-11T15:31:15.706Z,5.20
2022-10-11T15:36:53.595Z,5.35
2022-10-11T15:42:25.613Z,5.40
2022-10-11T15:47:57.839Z,5.60
2022-10-11T15:53:29.742Z,5.70
2022-10-11T16:04:33.708Z,5.85
2022-10-11T16:15:43.971Z,6.20
2022-10-11T16:21:18.415Z,6.45
2022-10-11T16:26:50.630Z,6.50
2022-10-11T16:32:23.136Z,6.55
2022-10-11T16:43:26.878Z,6.60
2022-10-11T16:48:58.656Z,6.75
2022-10-11T16:54:30.387Z,6.80
2022-10-11T17:02:15.513Z,0.98
2022-10-11T17:07:47.272Z,0.49
2022-10-11T17:18:50.865Z,1.22
2022-10-11T17:24:22.960Z,1.76
2022-10-11T17:29:54.654Z,2.12
2022-10-11T17:52:07.140Z,2.35
2022-10-11T17:54:30.684Z,2.00
2022-10-11T18:00:02.170Z,1.48
2022-10-11T18:05:34.131Z,1.64
2022-10-11T18:16:39.701Z,1.18
2022-10-11T18:22:11.893Z,1.96
2022-10-11T18:27:43.745Z,1.82
2022-10-11T18:33:15.686Z,1.84
2022-10-11T18:38:47.864Z,2.07
2022-10-11T18:44:19.564Z,1.86
2022-10-11T18:55:23.144Z,1.96
2022-10-11T19:00:55.080Z,1.88
2022-10-11T19:06:26.725Z,1.96
2022-10-11T19:11:58.743Z,2.15
2022-10-11T19:17:30.763Z,2.20
2022-10-11T19:23:02.666Z,2.19
2022-10-11T19:28:34.326Z,2.23
2022-10-11T19:34:06.144Z,2.22
2022-10-11T19:39:41.795Z,2.30
2022-10-11T19:45:13.526Z,2.55
2022-10-11T19:50:45.600Z,2.55
2022-10-11T19:56:17.896Z,2.65
2022-10-11T20:01:52.999Z,2.70
2022-10-11T20:07:22.119Z,2.75
2022-10-11T20:12:54.133Z,2.80
2022-10-11T20:18:26.001Z,2.90
2022-10-11T20:23:57.693Z,3.00
2022-10-11T20:35:00.503Z,3.10
2022-10-11T20:40:32.213Z,3.10
2022-10-11T20:46:04.010Z,3.25
2022-10-11T20:51:35.605Z,3.35
2022-10-11T20:57:07.383Z,3.40
2022-10-11T21:02:38.796Z,3.55
2022-10-11T21:08:10.392Z,3.55
2022-10-11T21:13:42.191Z,3.60
2022-10-11T21:19:13.780Z,3.65
2022-10-11T21:24:47.181Z,3.75
2022-10-11T21:30:18.981Z,3.75
2022-10-11T21:35:50.702Z,3.80
2022-10-11T21:41:22.222Z,3.90
2022-10-11T21:47:06.628Z,4.00
2022-10-11T21:52:25.956Z,4.05
2022-10-11T21:57:57.908Z,4.15
2022-10-11T22:03:29.625Z,4.20
2022-10-11T22:09:01.477Z,4.25
2022-10-11T22:14:33.226Z,4.35
2022-10-11T22:20:06.189Z,4.50
2022-10-11T22:25:37.913Z,4.55
2022-10-11T22:31:09.619Z,4.70
2022-10-11T22:36:42.702Z,4.70
2022-10-11T22:42:16.810Z,4.75
2022-10-11T22:53:17.579Z,4.90
2022-10-11T22:58:49.138Z,4.95
2022-10-11T23:04:20.737Z,5.10
2022-10-11T23:09:52.139Z,5.15
2022-10-11T23:15:25.586Z,5.25
2022-10-11T23:20:57.180Z,5.25
2022-10-11T23:32:00.042Z,5.40
2022-10-11T23:37:32.067Z,5.45
2022-10-11T23:43:03.806Z,5.45
2022-10-11T23:48:35.294Z,5.50
2022-10-11T23:54:07.122Z,5.60
2022-10-11T23:59:38.771Z,5.70
